General Aviation Weather

Text Reports

Enter one or more of the following location identifiers separated by a space:

Zip Code, Four-Character ICAO or Three-Character IATA airport codes.

METAR - Aviation Routine Weather Report
KTHV - York, Pennsylvania
Updated at 8:53 PM GMT on July 29, 2014 (4:53 PM EDT):
METAR KTHV 292053Z AUTO 30004KT 10SM SCT047 BKN060 OVC075 20/13 A2995 RMK AO2 SLP142 T02000133 53008
TAF - Terminal Area Forecast
KTHV - York, Pennsylvania
Updated at 8:53 PM GMT on July 29, 2014 (4:53 PM EDT):
No TAF is currently available for this location.
Decoded:
No decoded TAF is available.
PIREP - Pilot Weather Report
KTHV - York, Pennsylvania
Updated at 8:53 PM GMT on July 29, 2014 (4:53 PM EDT):
No PIREP is currently available for this location.
AIRMET - Airmens Meteorological Information
KTHV - York, Pennsylvania
Updated at 8:53 PM GMT on July 29, 2014 (4:53 PM EDT):
No AIRMET is currently available for this location.
SIGMET - Significant Meteorological Information
KTHV - York, Pennsylvania
Updated at 8:53 PM GMT on July 29, 2014 (4:53 PM EDT):
No SIGMET is currently available for this location.
NOTAM - Notice to Airmen
KTHV - York, Pennsylvania
Updated at 8:53 PM GMT on July 29, 2014 (4:53 PM EDT):
No NOTAM is currently available for this location.
Forecast Area
KTHV - York, Pennsylvania
Updated at 8:53 PM GMT on July 29, 2014 (4:53 PM EDT):
No NOTAM is currently available for this location.
Aviation Weather Maps